createdAt,value
2022-12-23T00:01:56.251Z,4.71
2022-12-23T00:04:26.749Z,4.72
2022-12-23T00:06:56.946Z,4.73
2022-12-23T00:09:27.140Z,4.78
2022-12-23T00:12:09.577Z,4.75
2022-12-23T00:14:54.812Z,4.73
2022-12-23T00:17:25.230Z,4.75
2022-12-23T00:19:55.556Z,4.76
2022-12-23T00:22:45.947Z,4.68
2022-12-23T00:25:16.778Z,4.73
2022-12-23T00:28:01.584Z,4.77
2022-12-23T00:30:34.564Z,4.78
2022-12-23T00:33:04.820Z,4.82
2022-12-23T00:35:35.222Z,4.82
2022-12-23T00:38:05.471Z,4.82
2022-12-23T00:40:48.546Z,4.83
2022-12-23T00:43:18.732Z,4.82
2022-12-23T00:45:51.701Z,4.84
2022-12-23T00:48:34.568Z,4.86
2022-12-23T00:51:04.970Z,4.84
2022-12-23T00:53:37.419Z,4.83
2022-12-23T00:56:08.710Z,4.82
2022-12-23T00:58:38.998Z,4.82
2022-12-23T01:01:24.333Z,4.78
2022-12-23T01:04:07.125Z,4.82
2022-12-23T01:06:40.382Z,4.78
2022-12-23T01:09:10.843Z,4.76
2022-12-23T01:11:43.885Z,4.85
2022-12-23T01:14:14.059Z,4.83
2022-12-23T01:16:48.156Z,4.82
2022-12-23T01:19:19.521Z,4.82
2022-12-23T01:21:49.864Z,4.84
2022-12-23T01:24:20.109Z,4.82
2022-12-23T01:26:50.318Z,4.88
2022-12-23T01:29:20.566Z,4.87
2022-12-23T01:31:53.431Z,4.89
2022-12-23T01:34:23.767Z,4.87
2022-12-23T01:36:53.955Z,4.86
2022-12-23T01:39:24.168Z,4.84
2022-12-23T01:42:06.866Z,4.86
2022-12-23T01:44:52.686Z,4.89
2022-12-23T01:47:41.834Z,4.90
2022-12-23T01:50:17.838Z,4.91
2022-12-23T01:52:53.287Z,4.93
2022-12-23T01:55:28.116Z,4.95
2022-12-23T01:58:03.521Z,4.94
2022-12-23T02:00:47.210Z,4.96
2022-12-23T02:03:32.398Z,4.98
2022-12-23T02:06:23.835Z,4.83
2022-12-23T02:09:07.621Z,4.96
2022-12-23T02:11:50.774Z,5.02
2022-12-23T02:14:48.638Z,5.06
2022-12-23T02:17:28.000Z,5.05
2022-12-23T02:20:42.618Z,5.08
2022-12-23T02:23:49.705Z,5.06
2022-12-23T02:26:50.720Z,5.00
2022-12-23T02:29:49.314Z,5.05
2022-12-23T02:32:27.787Z,5.06
2022-12-23T02:35:06.342Z,5.07
2022-12-23T02:37:41.859Z,5.10
2022-12-23T02:40:17.441Z,5.12
2022-12-23T02:42:52.077Z,5.15
2022-12-23T02:45:29.579Z,5.14
2022-12-23T02:48:08.422Z,5.10
2022-12-23T02:50:42.089Z,5.09
2022-12-23T02:53:17.885Z,5.07
2022-12-23T02:55:56.319Z,5.06
2022-12-23T02:58:31.185Z,5.06
2022-12-23T03:01:04.190Z,4.99
2022-12-23T03:03:38.500Z,5.01
2022-12-23T03:06:20.298Z,5.02
2022-12-23T03:08:52.468Z,5.03
2022-12-23T03:11:22.952Z,5.01
2022-12-23T03:14:09.002Z,5.02
2022-12-23T03:16:51.296Z,5.01
2022-12-23T03:19:35.350Z,5.01
2022-12-23T03:22:13.626Z,5.02
2022-12-23T03:24:50.403Z,5.05
2022-12-23T03:27:29.001Z,5.07
2022-12-23T03:30:06.835Z,5.09
2022-12-23T03:32:40.757Z,5.11
2022-12-23T03:35:17.375Z,5.11
2022-12-23T03:37:51.677Z,5.12
2022-12-23T03:40:28.041Z,5.14
2022-12-23T03:43:04.063Z,5.16
2022-12-23T03:45:40.722Z,5.15
2022-12-23T03:48:17.801Z,5.19
2022-12-23T03:50:55.677Z,5.13
2022-12-23T03:53:32.579Z,5.16
2022-12-23T03:56:08.876Z,5.12
2022-12-23T03:58:42.688Z,4.98
2022-12-23T04:01:20.014Z,5.15
2022-12-23T04:04:00.433Z,5.20
2022-12-23T04:06:39.026Z,5.18
2022-12-23T04:09:12.055Z,5.19
2022-12-23T04:11:45.025Z,5.20
2022-12-23T04:14:19.985Z,5.21
2022-12-23T04:16:53.055Z,5.22
2022-12-23T04:19:23.443Z,5.18
2022-12-23T04:21:58.719Z,5.10
2022-12-23T04:24:28.936Z,5.10
2022-12-23T04:26:59.065Z,5.11
2022-12-23T04:29:29.240Z,5.15
2022-12-23T04:31:59.520Z,5.11
2022-12-23T04:34:29.888Z,5.12
2022-12-23T04:37:02.969Z,5.20
2022-12-23T04:39:33.178Z,5.08
2022-12-23T04:42:03.367Z,5.11
2022-12-23T04:44:33.530Z,5.11
2022-12-23T04:47:03.894Z,5.13
2022-12-23T04:49:35.454Z,5.10
2022-12-23T04:52:08.541Z,5.10
2022-12-23T04:54:45.515Z,5.05
2022-12-23T04:57:16.596Z,5.05
2022-12-23T04:59:47.299Z,5.09
2022-12-23T05:02:17.561Z,5.11
2022-12-23T05:04:47.779Z,5.14
2022-12-23T05:07:20.635Z,5.13
2022-12-23T05:09:54.447Z,5.16
2022-12-23T05:12:24.570Z,5.19
2022-12-23T05:14:54.800Z,5.14
2022-12-23T05:17:25.143Z,5.14
2022-12-23T05:19:59.126Z,5.11
2022-12-23T05:22:31.916Z,5.19
2022-12-23T05:25:02.042Z,5.14
2022-12-23T05:27:32.276Z,5.21
2022-12-23T05:30:09.327Z,5.14
2022-12-23T05:32:44.740Z,5.13
2022-12-23T05:35:14.923Z,5.12
2022-12-23T05:37:47.814Z,5.08
2022-12-23T05:40:24.094Z,5.06
2022-12-23T05:43:00.007Z,5.05
2022-12-23T05:45:30.364Z,5.05
2022-12-23T05:48:03.514Z,5.09
2022-12-23T05:50:33.880Z,5.07
2022-12-23T05:53:06.843Z,5.06
2022-12-23T05:55:37.695Z,5.05
2022-12-23T05:58:08.021Z,5.08
2022-12-23T06:00:43.549Z,5.04
2022-12-23T06:03:14.074Z,5.09
2022-12-23T06:05:44.348Z,5.11
2022-12-23T06:08:17.087Z,5.11
2022-12-23T06:10:47.436Z,5.08
2022-12-23T06:13:17.770Z,5.11
2022-12-23T06:15:54.335Z,5.11
2022-12-23T06:18:24.551Z,5.11
2022-12-23T06:20:55.278Z,5.12
2022-12-23T06:23:28.031Z,5.12
2022-12-23T06:26:03.243Z,5.14
2022-12-23T06:28:34.518Z,5.14
2022-12-23T06:31:04.670Z,5.15
2022-12-23T06:33:34.888Z,5.14
2022-12-23T06:36:05.183Z,5.17
2022-12-23T06:38:38.051Z,5.19
2022-12-23T06:41:08.773Z,5.19
2022-12-23T06:43:38.945Z,5.19
2022-12-23T06:46:09.192Z,5.20
2022-12-23T06:48:42.276Z,5.20
2022-12-23T06:51:13.286Z,5.22
2022-12-23T06:53:46.209Z,5.23
2022-12-23T06:56:16.488Z,5.25
2022-12-23T06:58:47.176Z,5.21
2022-12-23T07:01:17.525Z,5.23
2022-12-23T07:03:50.262Z,5.22
2022-12-23T07:06:20.477Z,5.23
2022-12-23T07:08:53.634Z,5.21
2022-12-23T07:11:23.793Z,5.22
2022-12-23T07:13:54.152Z,5.22
2022-12-23T07:16:24.354Z,5.19
2022-12-23T07:18:54.675Z,5.20
2022-12-23T07:21:29.372Z,5.22
2022-12-23T07:24:02.693Z,5.22
2022-12-23T07:26:32.842Z,5.23
2022-12-23T07:29:04.403Z,5.24
2022-12-23T07:31:37.126Z,5.28
2022-12-23T07:34:11.220Z,5.26
2022-12-23T07:36:41.394Z,5.30
2022-12-23T07:39:14.272Z,5.27
2022-12-23T07:41:44.486Z,5.32
2022-12-23T07:44:14.750Z,5.38
2022-12-23T07:46:45.232Z,5.45
2022-12-23T07:49:15.590Z,5.46
2022-12-23T07:51:45.763Z,5.54
2022-12-23T07:54:18.637Z,5.60
2022-12-23T07:56:48.851Z,5.63
2022-12-23T07:59:19.274Z,5.69
2022-12-23T08:01:49.901Z,5.72
2022-12-23T08:04:20.727Z,5.72
2022-12-23T08:06:50.969Z,5.72
2022-12-23T08:09:24.104Z,5.74
2022-12-23T08:11:54.514Z,5.74
2022-12-23T08:14:24.653Z,5.81
2022-12-23T08:16:54.907Z,5.77
2022-12-23T08:19:25.114Z,5.84
2022-12-23T08:21:55.545Z,5.88
2022-12-23T08:24:28.328Z,5.88
2022-12-23T08:26:58.549Z,5.86
2022-12-23T08:29:35.781Z,5.88
2022-12-23T08:32:07.188Z,5.91
2022-12-23T08:34:37.843Z,5.87
2022-12-23T08:37:07.997Z,5.90
2022-12-23T08:39:42.422Z,5.90
2022-12-23T08:42:12.601Z,5.93
2022-12-23T08:44:42.958Z,5.97
2022-12-23T08:47:13.152Z,5.98
2022-12-23T08:49:47.060Z,6.01
2022-12-23T08:52:17.732Z,6.03
2022-12-23T08:54:51.204Z,6.13
2022-12-23T08:57:21.429Z,6.19
2022-12-23T08:59:51.929Z,6.24
2022-12-23T09:02:22.308Z,6.27
2022-12-23T09:04:52.705Z,6.08
2022-12-23T09:07:22.941Z,6.09
2022-12-23T09:09:58.610Z,6.00
2022-12-23T09:12:32.003Z,6.14
2022-12-23T09:15:02.404Z,6.23
2022-12-23T09:17:33.562Z,6.26
2022-12-23T09:20:05.188Z,6.35
2022-12-23T09:22:36.144Z,6.46
2022-12-23T09:25:10.135Z,6.54
2022-12-23T09:27:44.071Z,6.55
2022-12-23T09:30:15.845Z,6.54
2022-12-23T09:32:46.086Z,6.32
2022-12-23T09:35:16.416Z,6.29
2022-12-23T09:37:46.675Z,6.27
2022-12-23T09:40:22.593Z,6.41
2022-12-23T09:43:01.953Z,6.46
2022-12-23T09:45:47.411Z,6.59
2022-12-23T09:48:22.379Z,6.59
2022-12-23T09:50:52.592Z,6.62
2022-12-23T09:53:24.710Z,6.67
2022-12-23T09:56:05.189Z,6.73
2022-12-23T09:58:45.845Z,6.80
2022-12-23T10:01:22.452Z,6.89
2022-12-23T10:04:26.686Z,6.94
2022-12-23T10:07:06.617Z,7.04
2022-12-23T10:09:41.063Z,7.20
2022-12-23T10:12:27.755Z,7.32
2022-12-23T10:15:04.411Z,7.29
2022-12-23T10:17:40.227Z,7.15
2022-12-23T10:20:21.046Z,7.21
2022-12-23T10:22:51.497Z,7.24
2022-12-23T10:25:31.275Z,7.28
2022-12-23T10:28:04.300Z,7.24
2022-12-23T10:31:05.624Z,7.21
2022-12-23T10:33:40.354Z,7.26
2022-12-23T10:36:15.836Z,7.16
2022-12-23T10:38:57.313Z,7.24
2022-12-23T10:41:40.910Z,7.29
2022-12-23T10:44:39.560Z,7.07
2022-12-23T10:47:18.587Z,7.04
2022-12-23T10:50:02.489Z,6.95
2022-12-23T10:52:37.484Z,7.01
2022-12-23T10:55:08.774Z,7.15
2022-12-23T10:57:39.187Z,7.18
2022-12-23T11:00:21.287Z,7.34
2022-12-23T11:03:04.680Z,7.45
2022-12-23T11:05:37.320Z,7.50
2022-12-23T11:08:08.400Z,7.41
2022-12-23T11:10:39.699Z,7.40
2022-12-23T11:13:10.046Z,7.27
2022-12-23T11:15:44.191Z,7.24
2022-12-23T11:18:21.202Z,7.41
2022-12-23T11:21:06.105Z,7.41
2022-12-23T11:23:38.831Z,7.37
2022-12-23T11:26:12.365Z,7.29
2022-12-23T11:28:50.485Z,7.20
2022-12-23T11:31:32.662Z,7.16
2022-12-23T11:34:07.775Z,7.13
2022-12-23T11:36:38.528Z,7.12
2022-12-23T11:39:27.271Z,7.15
2022-12-23T11:42:07.859Z,7.13
2022-12-23T11:44:44.387Z,7.15
2022-12-23T11:47:29.449Z,7.16
2022-12-23T11:50:03.167Z,7.05
2022-12-23T11:52:35.445Z,6.96
2022-12-23T11:55:09.256Z,6.98
2022-12-23T11:57:45.455Z,7.07
2022-12-23T12:00:23.642Z,7.09
2022-12-23T12:02:58.081Z,7.04
2022-12-23T12:05:34.375Z,7.07
2022-12-23T12:08:08.683Z,7.07
2022-12-23T12:10:42.418Z,7.13
2022-12-23T12:13:27.023Z,7.18
2022-12-23T12:16:06.624Z,7.23
2022-12-23T12:18:42.128Z,7.33
2022-12-23T12:21:17.263Z,7.29
2022-12-23T12:24:08.319Z,7.33
2022-12-23T12:26:43.600Z,7.37
2022-12-23T12:29:21.491Z,7.39
2022-12-23T12:31:54.293Z,7.37
2022-12-23T12:34:52.534Z,7.32
2022-12-23T12:37:31.356Z,7.25
2022-12-23T12:40:04.296Z,7.36
2022-12-23T12:42:40.698Z,7.36
2022-12-23T12:45:19.769Z,7.36
2022-12-23T12:48:13.082Z,7.38
2022-12-23T12:50:58.163Z,7.43
2022-12-23T12:53:31.134Z,7.42
2022-12-23T12:56:09.603Z,7.41
2022-12-23T12:58:40.679Z,7.41
2022-12-23T13:01:28.125Z,7.36
2022-12-23T13:04:28.968Z,7.40
2022-12-23T13:07:12.515Z,7.43
2022-12-23T13:09:57.336Z,7.37
2022-12-23T13:12:41.442Z,7.34
2022-12-23T13:15:23.252Z,7.37
2022-12-23T13:18:10.088Z,7.39
2022-12-23T13:20:47.464Z,7.44
2022-12-23T13:23:45.480Z,7.51
2022-12-23T13:26:30.072Z,7.52
2022-12-23T13:29:20.349Z,7.57
2022-12-23T13:31:58.042Z,7.54
2022-12-23T13:34:42.235Z,7.53
2022-12-23T13:37:31.821Z,7.55
2022-12-23T13:40:22.699Z,7.51
2022-12-23T13:42:58.699Z,7.54
2022-12-23T13:45:36.332Z,7.54
2022-12-23T13:48:24.680Z,7.61
2022-12-23T13:51:02.837Z,7.54
2022-12-23T13:53:50.258Z,7.60
2022-12-23T13:56:30.110Z,7.54
2022-12-23T13:59:01.018Z,7.55
2022-12-23T14:01:38.787Z,7.38
2022-12-23T14:04:39.562Z,7.53
2022-12-23T14:07:22.459Z,7.54
2022-12-23T14:09:56.160Z,7.54
2022-12-23T14:12:32.151Z,7.49
2022-12-23T14:15:35.420Z,7.56
2022-12-23T14:18:22.086Z,7.51
2022-12-23T14:21:05.161Z,7.51
2022-12-23T14:23:50.219Z,7.54
2022-12-23T14:26:36.181Z,7.51
2022-12-23T14:29:31.172Z,7.47
2022-12-23T14:32:01.846Z,7.49
2022-12-23T14:34:34.453Z,7.44
2022-12-23T14:37:36.212Z,7.55
2022-12-23T14:40:41.246Z,7.55
2022-12-23T14:43:34.100Z,7.51
2022-12-23T14:46:08.586Z,7.51
2022-12-23T14:49:38.473Z,7.56
2022-12-23T14:52:44.302Z,7.52
2022-12-23T14:55:45.367Z,7.49
2022-12-23T14:58:48.261Z,7.51
2022-12-23T15:01:24.487Z,7.47
2022-12-23T15:04:01.342Z,7.45
2022-12-23T15:06:38.341Z,7.48
2022-12-23T15:09:10.347Z,7.50
2022-12-23T15:11:43.740Z,7.49
2022-12-23T15:14:22.901Z,7.48
2022-12-23T15:16:55.884Z,7.48
2022-12-23T15:19:28.957Z,7.47
2022-12-23T15:22:22.272Z,7.48
2022-12-23T15:24:56.073Z,7.46
2022-12-23T15:27:28.750Z,7.47
2022-12-23T15:30:00.583Z,7.48
2022-12-23T15:32:33.661Z,7.46
2022-12-23T15:35:07.998Z,7.39
2022-12-23T15:37:38.393Z,7.45
2022-12-23T15:40:25.219Z,7.43
2022-12-23T15:42:55.964Z,7.46
2022-12-23T15:45:41.700Z,7.44
2022-12-23T15:48:27.104Z,7.43
2022-12-23T15:51:01.100Z,7.43
2022-12-23T15:53:34.305Z,7.47
2022-12-23T15:56:09.789Z,7.44
2022-12-23T15:58:45.381Z,7.44
2022-12-23T16:01:18.459Z,7.49
2022-12-23T16:03:57.608Z,7.47
2022-12-23T16:06:32.085Z,7.46
2022-12-23T16:09:04.109Z,7.48
2022-12-23T16:11:45.136Z,7.49
2022-12-23T16:14:36.351Z,7.54
2022-12-23T16:17:18.677Z,7.49
2022-12-23T16:19:53.727Z,7.44
2022-12-23T16:22:30.869Z,7.45
2022-12-23T16:25:13.566Z,7.40
2022-12-23T16:27:46.232Z,7.44
2022-12-23T16:30:20.278Z,7.37
2022-12-23T16:32:54.873Z,7.41
2022-12-23T16:35:40.272Z,7.44
2022-12-23T16:38:21.621Z,7.35
2022-12-23T16:40:53.696Z,7.38
2022-12-23T16:43:26.187Z,7.40
2022-12-23T16:45:59.300Z,7.38
2022-12-23T16:48:34.542Z,7.31
2022-12-23T16:51:14.471Z,7.35
2022-12-23T16:53:44.747Z,7.36
2022-12-23T16:56:15.849Z,7.44
2022-12-23T16:58:49.716Z,7.44
2022-12-23T17:01:25.016Z,7.45
2022-12-23T17:03:56.070Z,7.45
2022-12-23T17:06:29.720Z,7.43
2022-12-23T17:09:03.018Z,7.42
2022-12-23T17:11:40.790Z,7.40
2022-12-23T17:14:17.914Z,7.42
2022-12-23T17:16:48.927Z,7.42
2022-12-23T17:19:28.002Z,7.37
2022-12-23T17:22:05.875Z,7.37
2022-12-23T17:24:36.222Z,7.39
2022-12-23T17:27:16.059Z,7.40
2022-12-23T17:29:47.322Z,7.41
2022-12-23T17:32:21.481Z,7.39
2022-12-23T17:34:51.706Z,7.39
2022-12-23T17:37:25.978Z,7.41
2022-12-23T17:39:56.518Z,7.37
2022-12-23T17:42:27.005Z,7.35
2022-12-23T17:44:57.307Z,7.33
2022-12-23T17:47:27.752Z,7.30
2022-12-23T17:50:01.066Z,7.32
2022-12-23T17:52:33.986Z,7.35
2022-12-23T17:55:04.232Z,7.27
2022-12-23T17:57:34.503Z,7.26
2022-12-23T18:00:07.755Z,7.28
2022-12-23T18:02:38.372Z,7.30
2022-12-23T18:05:22.720Z,7.30
2022-12-23T18:07:56.593Z,7.31
2022-12-23T18:10:28.413Z,7.33
2022-12-23T18:13:04.797Z,7.31
2022-12-23T18:15:38.827Z,7.27
2022-12-23T18:18:27.307Z,7.33
2022-12-23T18:21:10.399Z,7.31
2022-12-23T18:23:43.300Z,7.30
2022-12-23T18:26:16.618Z,7.34
2022-12-23T18:28:47.357Z,7.32
2022-12-23T18:31:20.482Z,7.34
2022-12-23T18:33:51.166Z,7.33
2022-12-23T18:36:27.955Z,7.37
2022-12-23T18:39:00.935Z,7.36
2022-12-23T18:41:31.233Z,7.35
2022-12-23T18:44:01.509Z,7.31
2022-12-23T18:46:31.877Z,7.31
2022-12-23T18:49:02.307Z,7.28
2022-12-23T18:51:32.592Z,7.24
2022-12-23T18:54:05.500Z,7.30
2022-12-23T18:56:35.706Z,7.31
2022-12-23T18:59:06.047Z,7.19
2022-12-23T19:01:36.441Z,7.28
2022-12-23T19:04:06.824Z,7.25
2022-12-23T19:06:40.487Z,7.23
2022-12-23T19:09:18.581Z,7.22
2022-12-23T19:11:51.244Z,7.24
2022-12-23T19:14:21.439Z,7.24
2022-12-23T19:16:52.702Z,7.22
2022-12-23T19:19:24.072Z,7.09
2022-12-23T19:21:54.544Z,7.01
2022-12-23T19:24:27.458Z,7.09
2022-12-23T19:26:57.676Z,7.14
2022-12-23T19:29:27.944Z,7.16
2022-12-23T19:31:58.377Z,7.18
2022-12-23T19:34:28.682Z,7.19
2022-12-23T19:36:58.990Z,7.14
2022-12-23T19:39:34.463Z,7.14
2022-12-23T19:42:04.797Z,7.14
2022-12-23T19:44:35.115Z,7.14
2022-12-23T19:47:05.781Z,7.12
2022-12-23T19:49:37.172Z,7.06
2022-12-23T19:52:08.236Z,7.09
2022-12-23T19:54:41.032Z,7.09
2022-12-23T19:57:11.334Z,7.06
2022-12-23T19:59:41.580Z,7.05
2022-12-23T20:02:16.838Z,7.05
2022-12-23T20:04:47.379Z,6.93
2022-12-23T20:07:19.948Z,6.92
2022-12-23T20:09:54.258Z,7.07
2022-12-23T20:12:26.582Z,7.05
2022-12-23T20:14:59.530Z,7.02
2022-12-23T20:17:29.809Z,7.01
2022-12-23T20:20:01.287Z,6.93
2022-12-23T20:22:31.638Z,7.08
2022-12-23T20:25:04.489Z,7.08
2022-12-23T20:27:35.574Z,6.93
2022-12-23T20:30:13.631Z,7.11
2022-12-23T20:32:44.404Z,7.13
2022-12-23T20:35:14.661Z,7.08
2022-12-23T20:37:44.823Z,6.99
2022-12-23T20:40:19.431Z,6.98
2022-12-23T20:42:49.687Z,7.03
2022-12-23T20:45:21.506Z,6.93
2022-12-23T20:47:54.262Z,6.99
2022-12-23T20:50:27.134Z,7.00
2022-12-23T20:52:57.309Z,7.06
2022-12-23T20:55:30.295Z,7.04
2022-12-23T20:58:20.703Z,7.02
2022-12-23T21:00:51.253Z,7.00
2022-12-23T21:03:21.574Z,6.92
2022-12-23T21:05:51.783Z,6.94
2022-12-23T21:08:22.090Z,6.88
2022-12-23T21:10:58.543Z,6.64
2022-12-23T21:13:28.766Z,6.60
2022-12-23T21:16:03.727Z,6.66
2022-12-23T21:18:34.098Z,6.70
2022-12-23T21:21:05.812Z,6.79
2022-12-23T21:23:39.981Z,6.76
2022-12-23T21:26:15.675Z,6.64
2022-12-23T21:28:48.584Z,6.61
2022-12-23T21:31:21.733Z,6.63
2022-12-23T21:33:53.366Z,6.69
2022-12-23T21:36:25.129Z,6.59
2022-12-23T21:38:56.333Z,6.60
2022-12-23T21:41:31.374Z,6.62
2022-12-23T21:44:02.931Z,6.79
2022-12-23T21:46:33.268Z,6.83
2022-12-23T21:49:03.720Z,6.82
2022-12-23T21:51:40.197Z,6.85
2022-12-23T21:54:12.072Z,6.79
2022-12-23T21:56:44.822Z,6.82
2022-12-23T21:59:16.830Z,6.92
2022-12-23T22:01:47.183Z,6.83
2022-12-23T22:04:17.479Z,6.81
2022-12-23T22:06:48.518Z,6.87
2022-12-23T22:09:20.725Z,6.91
2022-12-23T22:11:53.628Z,6.90
2022-12-23T22:14:23.890Z,6.88
2022-12-23T22:16:54.207Z,6.86
2022-12-23T22:19:24.532Z,6.76
2022-12-23T22:21:54.892Z,6.79
2022-12-23T22:24:25.216Z,6.80
2022-12-23T22:26:57.986Z,6.79
2022-12-23T22:29:29.133Z,6.80
2022-12-23T22:31:59.489Z,6.79
2022-12-23T22:34:29.813Z,6.81
2022-12-23T22:37:00.146Z,6.79
2022-12-23T22:39:30.407Z,6.74
2022-12-23T22:42:03.280Z,6.65
2022-12-23T22:44:33.451Z,6.67
2022-12-23T22:47:03.779Z,6.70
2022-12-23T22:49:33.975Z,6.72
2022-12-23T22:52:04.231Z,6.75
2022-12-23T22:54:34.582Z,6.70
2022-12-23T22:57:07.578Z,6.72
2022-12-23T22:59:41.407Z,6.68
2022-12-23T23:02:11.745Z,6.65
2022-12-23T23:04:42.381Z,6.64
2022-12-23T23:07:12.659Z,6.68
2022-12-23T23:09:43.719Z,6.67
2022-12-23T23:12:16.875Z,6.70
2022-12-23T23:14:56.158Z,6.74
2022-12-23T23:17:28.440Z,6.68
2022-12-23T23:19:58.949Z,6.58
2022-12-23T23:22:29.290Z,6.74
2022-12-23T23:24:59.708Z,6.74
2022-12-23T23:27:32.496Z,6.77
2022-12-23T23:30:07.878Z,6.78
2022-12-23T23:32:38.460Z,6.76
2022-12-23T23:35:11.827Z,6.75
2022-12-23T23:37:42.168Z,6.69
2022-12-23T23:40:13.904Z,6.70
2022-12-23T23:42:46.862Z,6.80
2022-12-23T23:45:17.383Z,6.80
2022-12-23T23:47:47.663Z,6.79
2022-12-23T23:50:18.245Z,6.83
2022-12-23T23:52:48.663Z,6.73
2022-12-23T23:55:19.066Z,6.79
2022-12-23T23:57:51.809Z,6.85
